createdAt,value
2023-04-01T00:02:04.602Z,13.35
2023-04-01T00:04:32.276Z,13.42
2023-04-01T00:07:01.605Z,13.06
2023-04-01T00:09:29.969Z,13.17
2023-04-01T00:11:58.594Z,13.76
2023-04-01T00:14:26.497Z,13.64
2023-04-01T00:16:54.869Z,14.35
2023-04-01T00:19:22.644Z,14.12
2023-04-01T00:21:50.579Z,14.33
2023-04-01T00:24:18.646Z,14.57
2023-04-01T00:26:46.743Z,14.81
2023-04-01T00:29:14.446Z,14.75
2023-04-01T00:31:42.609Z,14.56
2023-04-01T00:34:10.467Z,14.66
2023-04-01T00:36:38.557Z,14.53
2023-04-01T00:39:06.239Z,14.33
2023-04-01T00:41:34.387Z,14.36
2023-04-01T00:44:21.201Z,14.41
2023-04-01T00:46:49.206Z,14.21
2023-04-01T00:49:18.717Z,14.20
2023-04-01T00:51:49.539Z,14.18
2023-04-01T00:54:20.571Z,14.42
2023-04-01T00:56:57.205Z,14.54
2023-04-01T00:59:27.687Z,14.39
2023-04-01T01:01:55.979Z,14.29
2023-04-01T01:04:28.802Z,14.28
2023-04-01T01:07:13.394Z,14.50
2023-04-01T01:09:46.904Z,14.29
2023-04-01T01:12:18.290Z,14.45
2023-04-01T01:14:55.365Z,14.52
2023-04-01T01:17:42.334Z,14.15
2023-04-01T01:20:22.663Z,14.20
2023-04-01T01:23:12.826Z,13.50
2023-04-01T01:26:03.595Z,13.23
2023-04-01T01:28:31.655Z,13.28
2023-04-01T01:31:09.622Z,13.29
2023-04-01T01:34:01.226Z,13.61
2023-04-01T01:36:32.379Z,13.93
2023-04-01T01:39:02.030Z,13.89
2023-04-01T01:41:30.966Z,14.01
2023-04-01T01:44:01.140Z,13.82
2023-04-01T01:46:30.064Z,13.87
2023-04-01T01:48:59.272Z,13.81
2023-04-01T01:51:28.944Z,13.71
2023-04-01T01:53:57.368Z,13.71
2023-04-01T01:56:29.205Z,13.50
2023-04-01T01:59:01.472Z,13.69
2023-04-01T02:01:30.966Z,13.64
2023-04-01T02:04:05.904Z,13.83
2023-04-01T02:06:36.169Z,13.70
2023-04-01T02:09:08.009Z,13.84
2023-04-01T02:11:53.677Z,13.69
2023-04-01T02:14:23.887Z,13.71
2023-04-01T02:17:11.779Z,13.73
2023-04-01T02:19:43.336Z,13.52
2023-04-01T02:22:14.676Z,13.67
2023-04-01T02:24:43.399Z,13.78
2023-04-01T02:27:12.465Z,13.63
2023-04-01T02:29:40.845Z,13.61
2023-04-01T02:32:10.551Z,13.62
2023-04-01T02:34:39.105Z,13.67
2023-04-01T02:37:06.841Z,13.61
2023-04-01T02:39:34.914Z,13.71
2023-04-01T02:42:02.913Z,13.76
2023-04-01T02:44:31.356Z,13.64
2023-04-01T02:46:59.705Z,13.45
2023-04-01T02:49:27.819Z,13.43
2023-04-01T02:51:55.561Z,13.34
2023-04-01T02:54:23.567Z,13.46
2023-04-01T02:56:51.286Z,13.69
2023-04-01T02:59:19.673Z,13.48
2023-04-01T03:01:47.374Z,13.21
2023-04-01T03:04:15.630Z,13.11
2023-04-01T03:06:43.323Z,13.12
2023-04-01T03:09:11.897Z,13.24
2023-04-01T03:11:39.755Z,13.14
2023-04-01T03:14:08.244Z,13.36
2023-04-01T03:16:36.063Z,13.18
2023-04-01T03:19:04.469Z,13.18
2023-04-01T03:21:32.553Z,13.05
2023-04-01T03:24:01.093Z,12.74
2023-04-01T03:26:30.911Z,12.20
2023-04-01T03:28:59.902Z,12.34
2023-04-01T03:31:27.751Z,12.28
2023-04-01T03:33:58.374Z,12.77
2023-04-01T03:36:26.102Z,12.74
2023-04-01T03:38:54.505Z,12.81
2023-04-01T03:41:33.461Z,13.02
2023-04-01T03:44:01.824Z,12.84
2023-04-01T03:46:29.599Z,12.64
2023-04-01T03:48:57.757Z,12.66
2023-04-01T03:51:25.602Z,12.94
2023-04-01T03:53:54.065Z,12.74
2023-04-01T03:56:21.978Z,12.50
2023-04-01T03:58:51.589Z,12.60
2023-04-01T04:01:22.089Z,12.78
2023-04-01T04:03:53.734Z,12.52
2023-04-01T04:06:23.921Z,12.46
2023-04-01T04:08:52.494Z,12.34
2023-04-01T04:11:21.238Z,12.63
2023-04-01T04:13:50.595Z,12.63
2023-04-01T04:16:18.674Z,12.62
2023-04-01T04:18:52.658Z,12.53
2023-04-01T04:21:20.335Z,12.44
2023-04-01T04:23:48.415Z,12.53
2023-04-01T04:26:18.421Z,12.28
2023-04-01T04:28:55.031Z,12.31
2023-04-01T04:31:23.981Z,12.64
2023-04-01T04:33:53.755Z,12.30
2023-04-01T04:36:22.664Z,12.29
2023-04-01T04:38:52.517Z,12.48
2023-04-01T04:41:23.452Z,12.52
2023-04-01T04:43:54.400Z,12.27
2023-04-01T04:46:24.012Z,12.45
2023-04-01T04:48:58.749Z,12.58
2023-04-01T04:51:27.475Z,12.34
2023-04-01T04:53:55.977Z,12.32
2023-04-01T04:56:34.043Z,12.36
2023-04-01T04:59:07.724Z,12.80
2023-04-01T05:01:44.717Z,12.54
2023-04-01T05:04:12.960Z,12.37
2023-04-01T05:06:41.021Z,12.38
2023-04-01T05:09:09.475Z,12.41
2023-04-01T05:11:37.931Z,12.73
2023-04-01T05:14:06.191Z,12.80
2023-04-01T05:16:37.999Z,12.69
2023-04-01T05:19:06.253Z,12.61
2023-04-01T05:21:34.394Z,12.26
2023-04-01T05:24:03.091Z,12.49
2023-04-01T05:26:33.886Z,12.50
2023-04-01T05:29:02.088Z,12.59
2023-04-01T05:31:30.140Z,12.40
2023-04-01T05:33:59.322Z,12.66
2023-04-01T05:36:27.392Z,12.50
2023-04-01T05:38:57.656Z,12.52
2023-04-01T05:41:27.806Z,12.58
2023-04-01T05:43:56.515Z,12.37
2023-04-01T05:47:03.066Z,12.50
2023-04-01T05:49:31.775Z,12.59
2023-04-01T05:51:59.671Z,12.89
2023-04-01T05:54:28.953Z,12.71
2023-04-01T05:56:56.801Z,12.44
2023-04-01T05:59:24.962Z,12.28
2023-04-01T06:01:53.145Z,12.27
2023-04-01T06:04:21.975Z,12.69
2023-04-01T06:06:49.955Z,13.02
2023-04-01T06:09:19.788Z,12.99
2023-04-01T06:12:10.055Z,13.07
2023-04-01T06:14:55.586Z,13.10
2023-04-01T06:17:28.404Z,13.27
2023-04-01T06:19:56.665Z,13.39
2023-04-01T06:22:28.143Z,13.65
2023-04-01T06:25:16.331Z,13.59
2023-04-01T06:27:52.770Z,13.85
2023-04-01T06:30:34.975Z,14.24
2023-04-01T06:33:19.817Z,14.53
2023-04-01T06:35:58.872Z,14.52
2023-04-01T06:38:29.195Z,14.82
2023-04-01T06:41:04.886Z,14.65
2023-04-01T06:43:44.342Z,13.67
2023-04-01T06:46:40.340Z,13.62
2023-04-01T06:49:33.848Z,13.69
2023-04-01T06:52:20.468Z,13.65
2023-04-01T06:55:06.728Z,13.42
2023-04-01T06:57:57.680Z,13.75
2023-04-01T07:00:33.909Z,14.19
2023-04-01T07:03:05.477Z,13.97
2023-04-01T07:05:35.884Z,13.74
2023-04-01T07:08:07.534Z,14.56
2023-04-01T07:10:35.473Z,15.19
2023-04-01T07:13:28.746Z,15.62
2023-04-01T07:16:06.327Z,15.30
2023-04-01T07:18:58.332Z,15.73
2023-04-01T07:21:52.569Z,15.44
2023-04-01T07:24:35.961Z,15.40
2023-04-01T07:27:14.074Z,16.33
2023-04-01T07:29:43.409Z,16.47
2023-04-01T07:32:32.552Z,16.45
2023-04-01T07:35:21.012Z,16.66
2023-04-01T07:38:04.125Z,16.55
2023-04-01T07:41:02.156Z,17.23
2023-04-01T07:43:45.025Z,17.40
2023-04-01T07:46:32.014Z,17.94
2023-04-01T07:49:05.379Z,18.40
2023-04-01T07:52:00.494Z,18.43
2023-04-01T07:54:47.735Z,17.53
2023-04-01T07:57:21.248Z,17.28
2023-04-01T08:00:00.308Z,17.41
2023-04-01T08:03:01.278Z,17.51
2023-04-01T08:05:43.391Z,17.42
2023-04-01T08:08:27.413Z,18.33
2023-04-01T08:11:21.487Z,18.34
2023-04-01T08:14:19.378Z,19.06
2023-04-01T08:17:04.640Z,18.06
2023-04-01T08:19:57.813Z,18.08
2023-04-01T08:22:51.814Z,18.49
2023-04-01T08:25:34.553Z,19.32
2023-04-01T08:28:17.522Z,19.52
2023-04-01T08:30:51.170Z,19.81
2023-04-01T08:33:23.177Z,19.74
2023-04-01T08:36:16.785Z,19.30
2023-04-01T08:38:53.416Z,18.66
2023-04-01T08:41:28.759Z,18.10
2023-04-01T08:44:22.639Z,18.06
2023-04-01T08:47:05.005Z,18.02
2023-04-01T08:49:32.838Z,19.22
2023-04-01T08:52:25.168Z,19.73
2023-04-01T08:54:56.447Z,20.35
2023-04-01T08:57:47.079Z,20.34
2023-04-01T09:00:53.498Z,20.55
2023-04-01T09:04:16.693Z,20.41
2023-04-01T09:06:44.486Z,20.26
2023-04-01T09:09:23.008Z,20.57
2023-04-01T09:12:20.049Z,20.08
2023-04-01T09:15:07.111Z,20.04
2023-04-01T09:17:39.264Z,19.48
2023-04-01T09:20:26.071Z,19.69
2023-04-01T09:23:06.985Z,19.89
2023-04-01T09:25:38.156Z,20.50
2023-04-01T09:28:18.712Z,19.43
2023-04-01T09:30:46.940Z,19.13
2023-04-01T09:33:14.581Z,19.80
2023-04-01T09:36:01.301Z,20.61
2023-04-01T09:38:38.165Z,20.29
2023-04-01T09:41:18.505Z,21.18
2023-04-01T09:44:11.757Z,21.75
2023-04-01T09:47:10.118Z,22.52
2023-04-01T09:49:44.207Z,21.37
2023-04-01T09:52:16.657Z,21.49
2023-04-01T09:55:08.508Z,20.67
2023-04-01T09:57:55.532Z,21.49
2023-04-01T10:01:02.272Z,20.86
2023-04-01T10:03:33.350Z,21.16
2023-04-01T10:06:07.375Z,21.59
2023-04-01T10:09:05.672Z,22.42
2023-04-01T10:11:53.992Z,20.94
2023-04-01T10:14:41.780Z,22.28
2023-04-01T10:17:19.072Z,21.87
2023-04-01T10:19:56.951Z,21.51
2023-04-01T10:22:41.741Z,20.47
2023-04-01T10:25:23.371Z,20.76
2023-04-01T10:28:05.281Z,21.50
2023-04-01T10:30:57.501Z,21.67
2023-04-01T10:33:32.313Z,22.06
2023-04-01T10:36:18.944Z,22.02
2023-04-01T10:38:48.600Z,21.15
2023-04-01T10:41:30.827Z,21.89
2023-04-01T10:44:24.623Z,22.78
2023-04-01T10:46:52.768Z,23.24
2023-04-01T10:49:31.183Z,22.93
2023-04-01T10:52:13.571Z,22.31
2023-04-01T10:55:13.699Z,21.79
2023-04-01T10:58:28.564Z,22.49
2023-04-01T11:01:22.356Z,23.11
2023-04-01T11:04:41.816Z,21.95
2023-04-01T11:07:30.532Z,22.34
2023-04-01T11:09:59.438Z,22.70
2023-04-01T11:12:50.732Z,23.33
2023-04-01T11:15:19.072Z,23.15
2023-04-01T11:18:10.073Z,23.43
2023-04-01T11:20:56.542Z,23.11
2023-04-01T11:24:02.170Z,24.22
2023-04-01T11:26:52.999Z,24.78
2023-04-01T11:29:56.688Z,24.45
2023-04-01T11:32:48.706Z,24.80
2023-04-01T11:35:36.134Z,23.91
2023-04-01T11:38:06.051Z,23.08
2023-04-01T11:40:56.361Z,23.87
2023-04-01T11:44:05.761Z,23.32
2023-04-01T11:46:43.883Z,23.87
2023-04-01T11:49:38.100Z,25.12
2023-04-01T11:52:19.292Z,24.55
2023-04-01T11:54:53.190Z,24.82
2023-04-01T11:57:36.275Z,25.20
2023-04-01T12:00:23.551Z,26.09
2023-04-01T12:03:09.679Z,25.30
2023-04-01T12:05:37.790Z,25.98
2023-04-01T12:08:23.071Z,25.63
2023-04-01T12:10:51.634Z,24.93
2023-04-01T12:13:26.104Z,25.44
2023-04-01T12:15:54.372Z,25.95
2023-04-01T12:18:22.300Z,25.28
2023-04-01T12:21:10.815Z,25.08
2023-04-01T12:24:03.065Z,26.00
2023-04-01T12:26:31.216Z,26.37
2023-04-01T12:29:09.262Z,25.46
2023-04-01T12:31:38.073Z,26.58
2023-04-01T12:34:24.837Z,27.12
2023-04-01T12:37:13.671Z,25.38
2023-04-01T12:39:47.564Z,26.45
2023-04-01T12:42:15.811Z,27.01
2023-04-01T12:45:03.868Z,27.76
2023-04-01T12:47:51.100Z,26.74
2023-04-01T12:50:30.192Z,25.96
2023-04-01T12:53:04.371Z,24.94
2023-04-01T12:55:35.290Z,27.04
2023-04-01T12:58:03.563Z,28.31
2023-04-01T13:00:37.473Z,26.97
2023-04-01T13:03:18.635Z,26.84
2023-04-01T13:05:46.469Z,26.80
2023-04-01T13:08:26.713Z,26.56
2023-04-01T13:11:13.330Z,25.56
2023-04-01T13:14:00.323Z,27.09
2023-04-01T13:16:31.257Z,27.47
2023-04-01T13:19:08.909Z,28.49
2023-04-01T13:21:53.420Z,28.79
2023-04-01T13:24:31.000Z,29.67
2023-04-01T13:27:02.632Z,29.70
2023-04-01T13:29:32.073Z,29.49
2023-04-01T13:31:59.902Z,28.70
2023-04-01T13:34:28.118Z,28.93
2023-04-01T13:37:19.773Z,28.86
2023-04-01T13:40:18.562Z,27.37
2023-04-01T13:42:46.931Z,28.23
2023-04-01T13:45:15.667Z,28.07
2023-04-01T13:47:52.438Z,28.93
2023-04-01T13:50:45.895Z,29.30
2023-04-01T13:53:21.507Z,28.60
2023-04-01T13:55:58.938Z,27.87
2023-04-01T13:58:35.941Z,27.37
2023-04-01T14:01:12.997Z,27.19
2023-04-01T14:03:56.346Z,27.81
2023-04-01T14:06:36.701Z,29.69
2023-04-01T14:09:04.826Z,30.14
2023-04-01T14:11:38.594Z,30.33
2023-04-01T14:14:35.712Z,30.10
2023-04-01T14:17:22.206Z,30.45
2023-04-01T14:19:50.007Z,30.86
2023-04-01T14:22:27.125Z,30.73
2023-04-01T14:25:13.845Z,30.67
2023-04-01T14:27:45.803Z,30.85
2023-04-01T14:30:25.706Z,30.93
2023-04-01T14:33:21.463Z,31.07
2023-04-01T14:35:49.381Z,31.18
2023-04-01T14:38:26.205Z,30.89
2023-04-01T14:40:56.735Z,30.93
2023-04-01T14:43:43.044Z,31.33
2023-04-01T14:46:13.621Z,31.40
2023-04-01T14:48:44.504Z,30.96
2023-04-01T14:51:18.195Z,31.02
2023-04-01T14:54:06.654Z,31.05
2023-04-01T14:56:40.792Z,29.59
2023-04-01T14:59:35.635Z,29.24
2023-04-01T15:02:12.710Z,28.06
2023-04-01T15:04:56.111Z,28.26
2023-04-01T15:07:32.841Z,27.99
2023-04-01T15:10:27.316Z,27.66
2023-04-01T15:13:06.646Z,27.61
2023-04-01T15:15:37.753Z,27.30
2023-04-01T15:18:10.528Z,27.15
2023-04-01T15:20:51.004Z,27.22
2023-04-01T15:23:18.787Z,27.30
2023-04-01T15:26:06.901Z,27.10
2023-04-01T15:28:41.268Z,27.18
2023-04-01T15:31:09.482Z,27.69
2023-04-01T15:33:40.160Z,28.34
2023-04-01T15:36:08.340Z,28.70
2023-04-01T15:38:42.294Z,28.62
2023-04-01T15:41:13.502Z,28.20
2023-04-01T15:43:53.500Z,28.39
2023-04-01T15:46:40.467Z,28.70
2023-04-01T15:49:27.052Z,27.90
2023-04-01T15:52:13.878Z,28.21
2023-04-01T15:54:53.633Z,28.28
2023-04-01T15:57:38.383Z,28.35
2023-04-01T16:00:25.097Z,28.03
2023-04-01T16:03:02.855Z,28.17
2023-04-01T16:05:49.475Z,27.85
2023-04-01T16:08:36.565Z,28.31
2023-04-01T16:11:19.821Z,27.52
2023-04-01T16:13:53.285Z,27.72
2023-04-01T16:16:47.732Z,27.67
2023-04-01T16:19:35.670Z,27.88
2023-04-01T16:22:06.509Z,27.90
2023-04-01T16:24:51.378Z,27.98
2023-04-01T16:27:31.128Z,27.77
2023-04-01T16:30:22.360Z,27.88
2023-04-01T16:33:01.752Z,27.48
2023-04-01T16:35:35.460Z,27.36
2023-04-01T16:38:12.823Z,27.12
2023-04-01T16:40:43.910Z,27.08
2023-04-01T16:43:14.853Z,26.95
2023-04-01T16:45:44.817Z,26.77
2023-04-01T16:48:35.909Z,26.54
2023-04-01T16:51:06.237Z,26.50
2023-04-01T16:53:36.829Z,26.38
2023-04-01T16:56:10.239Z,26.11
2023-04-01T16:58:41.279Z,25.80
2023-04-01T17:01:21.587Z,25.64
2023-04-01T17:03:52.434Z,25.59
2023-04-01T17:06:30.730Z,25.88
2023-04-01T17:09:06.194Z,25.51
2023-04-01T17:11:56.109Z,25.46
2023-04-01T17:14:39.135Z,25.21
2023-04-01T17:17:26.594Z,24.96
2023-04-01T17:20:11.567Z,24.87
2023-04-01T17:22:56.386Z,24.77
2023-04-01T17:25:33.541Z,24.49
2023-04-01T17:28:20.576Z,24.43
2023-04-01T17:30:51.472Z,24.06
2023-04-01T17:33:25.782Z,24.29
2023-04-01T17:35:53.493Z,24.05
2023-04-01T17:38:24.448Z,24.03
2023-04-01T17:41:07.364Z,23.84
2023-04-01T17:43:44.843Z,23.63
2023-04-01T17:46:21.819Z,23.76
2023-04-01T17:48:51.367Z,23.49
2023-04-01T17:51:23.574Z,23.47
2023-04-01T17:53:57.748Z,23.40
2023-04-01T17:56:31.415Z,23.22
2023-04-01T17:59:18.464Z,23.05
2023-04-01T18:01:51.659Z,23.21
2023-04-01T18:04:44.168Z,22.93
2023-04-01T18:07:35.259Z,22.86
2023-04-01T18:10:12.419Z,22.88
2023-04-01T18:12:59.178Z,22.79
2023-04-01T18:15:37.056Z,22.75
2023-04-01T18:18:11.684Z,22.73
2023-04-01T18:20:56.399Z,22.65
2023-04-01T18:23:32.939Z,22.55
2023-04-01T18:26:07.768Z,22.52
2023-04-01T18:28:54.721Z,22.39
2023-04-01T18:31:25.773Z,22.37
2023-04-01T18:33:56.985Z,22.27
2023-04-01T18:36:37.106Z,21.89
2023-04-01T18:39:09.902Z,21.78
2023-04-01T18:41:54.543Z,21.83
2023-04-01T18:44:40.871Z,21.72
2023-04-01T18:47:08.885Z,21.78
2023-04-01T18:49:48.584Z,21.68
2023-04-01T18:52:37.391Z,21.75
2023-04-01T18:55:05.182Z,21.63
2023-04-01T18:57:46.910Z,21.81
2023-04-01T19:00:26.597Z,21.44
2023-04-01T19:03:10.645Z,21.33
2023-04-01T19:05:40.890Z,21.64
2023-04-01T19:08:24.063Z,21.32
2023-04-01T19:10:57.855Z,21.23
2023-04-01T19:13:32.222Z,21.27
2023-04-01T19:16:12.217Z,21.17
2023-04-01T19:18:58.724Z,21.03
2023-04-01T19:21:34.923Z,21.02
2023-04-01T19:24:06.129Z,20.99
2023-04-01T19:26:36.889Z,20.99
2023-04-01T19:29:17.979Z,21.07
2023-04-01T19:32:04.068Z,20.88
2023-04-01T19:34:50.798Z,21.15
2023-04-01T19:37:18.532Z,20.94
2023-04-01T19:39:56.621Z,21.12
2023-04-01T19:42:24.315Z,20.98
2023-04-01T19:45:21.926Z,20.76
2023-04-01T19:48:15.624Z,20.83
2023-04-01T19:50:43.817Z,20.67
2023-04-01T19:53:30.555Z,20.65
2023-04-01T19:56:16.975Z,20.39
2023-04-01T19:58:50.747Z,20.35
2023-04-01T20:01:29.419Z,20.11
2023-04-01T20:04:21.327Z,20.19
2023-04-01T20:07:07.827Z,19.98
2023-04-01T20:09:38.547Z,19.87
2023-04-01T20:12:06.563Z,20.00
2023-04-01T20:14:41.875Z,19.80
2023-04-01T20:17:18.203Z,19.75
2023-04-01T20:20:04.512Z,19.80
2023-04-01T20:22:45.119Z,19.87
2023-04-01T20:25:33.850Z,19.62
2023-04-01T20:28:06.515Z,19.60
2023-04-01T20:30:37.262Z,19.40
2023-04-01T20:33:14.073Z,19.51
2023-04-01T20:35:48.415Z,19.69
2023-04-01T20:38:37.137Z,19.71
2023-04-01T20:41:08.176Z,19.61
2023-04-01T20:43:43.885Z,19.60
2023-04-01T20:46:28.722Z,19.68
2023-04-01T20:49:03.805Z,19.53
2023-04-01T20:51:39.404Z,19.48
2023-04-01T20:54:25.846Z,19.47
2023-04-01T20:57:12.136Z,19.61
2023-04-01T21:00:00.360Z,19.53
2023-04-01T21:02:30.918Z,19.63
2023-04-01T21:05:18.791Z,19.77
2023-04-01T21:07:46.407Z,19.67
2023-04-01T21:10:33.183Z,19.75
2023-04-01T21:13:11.641Z,19.69
2023-04-01T21:15:58.333Z,19.76
2023-04-01T21:18:44.587Z,19.85
2023-04-01T21:21:15.927Z,19.75
2023-04-01T21:23:50.861Z,19.70
2023-04-01T21:26:43.848Z,19.76
2023-04-01T21:29:30.874Z,19.87
2023-04-01T21:32:11.117Z,19.99
2023-04-01T21:34:43.320Z,20.01
2023-04-01T21:37:11.358Z,19.86
2023-04-01T21:39:57.505Z,19.83
2023-04-01T21:42:35.465Z,20.03
2023-04-01T21:45:09.065Z,19.76
2023-04-01T21:47:46.245Z,19.69
2023-04-01T21:50:32.565Z,19.75
2023-04-01T21:53:09.673Z,19.87
2023-04-01T21:55:49.605Z,19.88
2023-04-01T21:58:36.004Z,19.70
2023-04-01T22:01:12.957Z,19.80
2023-04-01T22:04:06.565Z,19.91
2023-04-01T22:06:48.433Z,19.83
2023-04-01T22:09:22.472Z,19.84
2023-04-01T22:12:08.854Z,19.69
2023-04-01T22:14:59.340Z,19.58
2023-04-01T22:17:33.477Z,19.66
2023-04-01T22:20:24.604Z,19.75
2023-04-01T22:22:52.406Z,19.68
2023-04-01T22:25:30.041Z,19.83
2023-04-01T22:28:01.903Z,19.90
2023-04-01T22:30:29.875Z,19.73
2023-04-01T22:32:57.519Z,19.72
2023-04-01T22:35:35.121Z,19.74
2023-04-01T22:38:15.044Z,19.73
2023-04-01T22:40:56.651Z,19.76
2023-04-01T22:43:36.054Z,19.93
2023-04-01T22:46:22.896Z,19.71
2023-04-01T22:49:00.963Z,19.87
2023-04-01T22:51:41.694Z,19.74
2023-04-01T22:54:16.056Z,19.81
2023-04-01T22:56:49.900Z,19.75
2023-04-01T22:59:26.030Z,19.79
2023-04-01T23:01:57.609Z,19.73
2023-04-01T23:04:30.266Z,19.69
2023-04-01T23:07:04.116Z,18.26
2023-04-01T23:09:34.847Z,18.07
2023-04-01T23:12:11.764Z,17.79
2023-04-01T23:14:41.872Z,17.73
2023-04-01T23:17:28.688Z,18.02
2023-04-01T23:20:07.032Z,18.08
2023-04-01T23:22:55.875Z,17.99
2023-04-01T23:25:43.327Z,18.07
2023-04-01T23:28:11.281Z,18.16
2023-04-01T23:30:41.694Z,18.25
2023-04-01T23:33:22.244Z,18.17
2023-04-01T23:35:50.938Z,18.37
2023-04-01T23:38:20.466Z,18.30
2023-04-01T23:40:52.735Z,18.38
2023-04-01T23:43:32.466Z,18.28
2023-04-01T23:46:04.795Z,18.49
2023-04-01T23:48:40.586Z,18.54
2023-04-01T23:51:23.576Z,18.37
2023-04-01T23:54:18.413Z,18.43
2023-04-01T23:56:48.186Z,18.20
2023-04-01T23:59:25.895Z,18.08
